sensor_id;sensor_type;location;lat;lon;timestamp;P1;durP1;ratioP1;P2;durP2;ratioP2
65879;SDS011;52661;51.364;6.054;2023-03-03T00:00:42;34.47;;;10.88;;
65879;SDS011;52661;51.364;6.054;2023-03-03T00:03:08;27.20;;;10.70;;
65879;SDS011;52661;51.364;6.054;2023-03-03T00:05:35;36.25;;;11.18;;
65879;SDS011;52661;51.364;6.054;2023-03-03T00:08:01;35.20;;;10.90;;
65879;SDS011;52661;51.364;6.054;2023-03-03T00:10:27;29.25;;;10.32;;
65879;SDS011;52661;51.364;6.054;2023-03-03T00:12:52;33.53;;;10.82;;
65879;SDS011;52661;51.364;6.054;2023-03-03T00:15:22;36.47;;;10.77;;
65879;SDS011;52661;51.364;6.054;2023-03-03T00:17:49;34.78;;;11.07;;
65879;SDS011;52661;51.364;6.054;2023-03-03T00:25:52;35.95;;;11.48;;
65879;SDS011;52661;51.364;6.054;2023-03-03T00:30:49;38.10;;;11.73;;
65879;SDS011;52661;51.364;6.054;2023-03-03T00:33:22;37.03;;;12.32;;
65879;SDS011;52661;51.364;6.054;2023-03-03T00:35:58;31.00;;;10.82;;
65879;SDS011;52661;51.364;6.054;2023-03-03T00:38:45;34.08;;;12.55;;
65879;SDS011;52661;51.364;6.054;2023-03-03T00:41:24;32.58;;;10.07;;
65879;SDS011;52661;51.364;6.054;2023-03-03T00:43:51;33.33;;;10.95;;
65879;SDS011;52661;51.364;6.054;2023-03-03T00:46:17;29.63;;;9.45;;
65879;SDS011;52661;51.364;6.054;2023-03-03T00:48:44;33.47;;;9.73;;
65879;SDS011;52661;51.364;6.054;2023-03-03T00:51:30;30.48;;;10.18;;
65879;SDS011;52661;51.364;6.054;2023-03-03T00:53:58;33.15;;;9.75;;
65879;SDS011;52661;51.364;6.054;2023-03-03T00:56:23;31.38;;;10.50;;
65879;SDS011;52661;51.364;6.054;2023-03-03T00:58:49;36.85;;;10.07;;
65879;SDS011;52661;51.364;6.054;2023-03-03T01:01:15;29.20;;;8.75;;
65879;SDS011;52661;51.364;6.054;2023-03-03T01:03:42;29.88;;;9.68;;
65879;SDS011;52661;51.364;6.054;2023-03-03T01:06:08;29.92;;;9.73;;
65879;SDS011;52661;51.364;6.054;2023-03-03T01:08:34;33.08;;;10.93;;
65879;SDS011;52661;51.364;6.054;2023-03-03T01:11:03;32.95;;;10.32;;
65879;SDS011;52661;51.364;6.054;2023-03-03T01:13:32;24.23;;;7.43;;
65879;SDS011;52661;51.364;6.054;2023-03-03T01:16:00;34.20;;;10.32;;
65879;SDS011;52661;51.364;6.054;2023-03-03T01:18:26;32.88;;;9.57;;
65879;SDS011;52661;51.364;6.054;2023-03-03T01:20:52;28.55;;;9.70;;
65879;SDS011;52661;51.364;6.054;2023-03-03T01:23:17;24.90;;;8.90;;
65879;SDS011;52661;51.364;6.054;2023-03-03T01:25:42;27.67;;;9.65;;
65879;SDS011;52661;51.364;6.054;2023-03-03T01:28:08;27.73;;;8.30;;
65879;SDS011;52661;51.364;6.054;2023-03-03T01:30:33;32.17;;;10.27;;
65879;SDS011;52661;51.364;6.054;2023-03-03T01:32:59;30.25;;;10.70;;
65879;SDS011;52661;51.364;6.054;2023-03-03T01:35:24;26.63;;;9.20;;
65879;SDS011;52661;51.364;6.054;2023-03-03T01:37:50;32.80;;;10.17;;
65879;SDS011;52661;51.364;6.054;2023-03-03T01:40:19;18.27;;;6.40;;
65879;SDS011;52661;51.364;6.054;2023-03-03T01:42:47;28.33;;;8.65;;
65879;SDS011;52661;51.364;6.054;2023-03-03T01:47:38;25.88;;;7.95;;
65879;SDS011;52661;51.364;6.054;2023-03-03T01:50:11;29.40;;;8.25;;
65879;SDS011;52661;51.364;6.054;2023-03-03T01:52:42;27.48;;;7.72;;
65879;SDS011;52661;51.364;6.054;2023-03-03T01:55:19;24.88;;;8.57;;
65879;SDS011;52661;51.364;6.054;2023-03-03T01:58:04;23.67;;;7.00;;
65879;SDS011;52661;51.364;6.054;2023-03-03T02:00:35;29.77;;;8.82;;
65879;SDS011;52661;51.364;6.054;2023-03-03T02:03:02;27.42;;;8.98;;
65879;SDS011;52661;51.364;6.054;2023-03-03T02:05:29;30.98;;;9.18;;
65879;SDS011;52661;51.364;6.054;2023-03-03T02:07:54;23.75;;;7.45;;
65879;SDS011;52661;51.364;6.054;2023-03-03T02:10:20;24.45;;;7.32;;
65879;SDS011;52661;51.364;6.054;2023-03-03T02:12:53;27.05;;;7.50;;
65879;SDS011;52661;51.364;6.054;2023-03-03T02:15:24;33.20;;;9.73;;
65879;SDS011;52661;51.364;6.054;2023-03-03T02:17:53;29.15;;;8.60;;
65879;SDS011;52661;51.364;6.054;2023-03-03T02:30:28;25.70;;;7.27;;
65879;SDS011;52661;51.364;6.054;2023-03-03T02:32:54;30.13;;;7.90;;
65879;SDS011;52661;51.364;6.054;2023-03-03T02:35:40;27.00;;;8.13;;
65879;SDS011;52661;51.364;6.054;2023-03-03T02:40:44;20.88;;;8.25;;
65879;SDS011;52661;51.364;6.054;2023-03-03T02:43:21;31.13;;;9.63;;
65879;SDS011;52661;51.364;6.054;2023-03-03T02:45:50;23.20;;;6.88;;
65879;SDS011;52661;51.364;6.054;2023-03-03T02:48:15;29.07;;;8.80;;
65879;SDS011;52661;51.364;6.054;2023-03-03T02:50:41;24.70;;;7.03;;
65879;SDS011;52661;51.364;6.054;2023-03-03T02:53:06;17.27;;;5.97;;
65879;SDS011;52661;51.364;6.054;2023-03-03T02:55:31;28.77;;;8.73;;
65879;SDS011;52661;51.364;6.054;2023-03-03T02:57:57;25.27;;;6.67;;
65879;SDS011;52661;51.364;6.054;2023-03-03T03:00:22;21.50;;;6.07;;
65879;SDS011;52661;51.364;6.054;2023-03-03T03:02:47;20.87;;;7.23;;
65879;SDS011;52661;51.364;6.054;2023-03-03T03:05:13;24.77;;;8.57;;
65879;SDS011;52661;51.364;6.054;2023-03-03T03:07:38;29.52;;;7.90;;
65879;SDS011;52661;51.364;6.054;2023-03-03T03:10:04;16.07;;;5.47;;
65879;SDS011;52661;51.364;6.054;2023-03-03T03:12:29;25.35;;;8.60;;
65879;SDS011;52661;51.364;6.054;2023-03-03T03:14:55;20.83;;;7.93;;
65879;SDS011;52661;51.364;6.054;2023-03-03T03:17:20;23.95;;;8.30;;
65879;SDS011;52661;51.364;6.054;2023-03-03T03:19:46;25.35;;;6.65;;
65879;SDS011;52661;51.364;6.054;2023-03-03T03:22:11;27.50;;;6.57;;
65879;SDS011;52661;51.364;6.054;2023-03-03T03:24:36;30.13;;;7.93;;
65879;SDS011;52661;51.364;6.054;2023-03-03T03:27:02;24.27;;;6.50;;
65879;SDS011;52661;51.364;6.054;2023-03-03T03:29:27;29.30;;;7.10;;
65879;SDS011;52661;51.364;6.054;2023-03-03T03:31:52;33.00;;;7.20;;
65879;SDS011;52661;51.364;6.054;2023-03-03T03:34:18;32.10;;;7.47;;
65879;SDS011;52661;51.364;6.054;2023-03-03T03:36:43;30.67;;;8.07;;
65879;SDS011;52661;51.364;6.054;2023-03-03T03:39:10;33.90;;;6.57;;
65879;SDS011;52661;51.364;6.054;2023-03-03T03:41:36;33.95;;;9.18;;
65879;SDS011;52661;51.364;6.054;2023-03-03T03:44:02;27.15;;;7.25;;
65879;SDS011;52661;51.364;6.054;2023-03-03T03:46:27;28.67;;;7.15;;
65879;SDS011;52661;51.364;6.054;2023-03-03T03:48:52;28.43;;;6.90;;
65879;SDS011;52661;51.364;6.054;2023-03-03T03:51:18;23.60;;;6.97;;
65879;SDS011;52661;51.364;6.054;2023-03-03T03:53:43;31.58;;;9.25;;
65879;SDS011;52661;51.364;6.054;2023-03-03T03:56:09;28.35;;;7.05;;
65879;SDS011;52661;51.364;6.054;2023-03-03T03:58:34;29.88;;;7.72;;
65879;SDS011;52661;51.364;6.054;2023-03-03T04:01:01;25.57;;;7.53;;
65879;SDS011;52661;51.364;6.054;2023-03-03T04:03:28;30.85;;;7.05;;
65879;SDS011;52661;51.364;6.054;2023-03-03T04:05:53;32.30;;;8.60;;
65879;SDS011;52661;51.364;6.054;2023-03-03T04:08:19;36.42;;;8.73;;
65879;SDS011;52661;51.364;6.054;2023-03-03T04:10:44;31.50;;;7.95;;
65879;SDS011;52661;51.364;6.054;2023-03-03T04:13:09;40.20;;;9.17;;
65879;SDS011;52661;51.364;6.054;2023-03-03T04:15:35;31.70;;;8.65;;
65879;SDS011;52661;51.364;6.054;2023-03-03T04:18:00;31.10;;;8.93;;
65879;SDS011;52661;51.364;6.054;2023-03-03T04:20:26;36.53;;;8.35;;
65879;SDS011;52661;51.364;6.054;2023-03-03T04:22:51;35.90;;;8.23;;
65879;SDS011;52661;51.364;6.054;2023-03-03T04:25:17;31.25;;;8.45;;
65879;SDS011;52661;51.364;6.054;2023-03-03T04:27:43;34.03;;;8.18;;
65879;SDS011;52661;51.364;6.054;2023-03-03T04:30:12;36.80;;;9.50;;
65879;SDS011;52661;51.364;6.054;2023-03-03T04:32:39;38.35;;;8.20;;
65879;SDS011;52661;51.364;6.054;2023-03-03T04:35:05;34.85;;;8.20;;
65879;SDS011;52661;51.364;6.054;2023-03-03T04:37:31;33.65;;;7.72;;
65879;SDS011;52661;51.364;6.054;2023-03-03T04:39:57;32.30;;;7.85;;
65879;SDS011;52661;51.364;6.054;2023-03-03T04:42:22;41.53;;;9.77;;
65879;SDS011;52661;51.364;6.054;2023-03-03T04:44:48;37.47;;;7.75;;
65879;SDS011;52661;51.364;6.054;2023-03-03T04:47:13;34.87;;;7.30;;
65879;SDS011;52661;51.364;6.054;2023-03-03T04:49:38;40.37;;;9.33;;
65879;SDS011;52661;51.364;6.054;2023-03-03T04:52:04;38.13;;;9.20;;
65879;SDS011;52661;51.364;6.054;2023-03-03T04:54:29;39.53;;;8.70;;
65879;SDS011;52661;51.364;6.054;2023-03-03T04:56:55;33.28;;;9.40;;
65879;SDS011;52661;51.364;6.054;2023-03-03T04:59:20;39.80;;;10.20;;
65879;SDS011;52661;51.364;6.054;2023-03-03T05:01:46;39.93;;;9.77;;
65879;SDS011;52661;51.364;6.054;2023-03-03T05:04:11;33.10;;;8.07;;
65879;SDS011;52661;51.364;6.054;2023-03-03T05:06:36;34.63;;;9.40;;
65879;SDS011;52661;51.364;6.054;2023-03-03T05:09:02;37.45;;;8.98;;
65879;SDS011;52661;51.364;6.054;2023-03-03T05:11:27;37.53;;;9.05;;
65879;SDS011;52661;51.364;6.054;2023-03-03T05:13:53;34.70;;;8.27;;
65879;SDS011;52661;51.364;6.054;2023-03-03T05:16:18;37.42;;;8.75;;
65879;SDS011;52661;51.364;6.054;2023-03-03T05:18:43;27.40;;;7.77;;
65879;SDS011;52661;51.364;6.054;2023-03-03T05:21:09;30.20;;;7.90;;
65879;SDS011;52661;51.364;6.054;2023-03-03T05:23:35;34.97;;;8.60;;
65879;SDS011;52661;51.364;6.054;2023-03-03T05:26:01;36.53;;;9.80;;
65879;SDS011;52661;51.364;6.054;2023-03-03T05:28:26;37.33;;;9.53;;
65879;SDS011;52661;51.364;6.054;2023-03-03T05:30:51;35.03;;;9.82;;
65879;SDS011;52661;51.364;6.054;2023-03-03T05:33:17;38.30;;;8.80;;
65879;SDS011;52661;51.364;6.054;2023-03-03T05:35:42;27.42;;;8.10;;
65879;SDS011;52661;51.364;6.054;2023-03-03T05:38:08;31.65;;;9.15;;
65879;SDS011;52661;51.364;6.054;2023-03-03T05:40:34;31.65;;;9.77;;
65879;SDS011;52661;51.364;6.054;2023-03-03T05:42:59;32.50;;;10.25;;
65879;SDS011;52661;51.364;6.054;2023-03-03T05:45:24;30.10;;;10.10;;
65879;SDS011;52661;51.364;6.054;2023-03-03T05:47:50;26.00;;;7.70;;
65879;SDS011;52661;51.364;6.054;2023-03-03T05:50:16;17.30;;;6.00;;
65879;SDS011;52661;51.364;6.054;2023-03-03T05:52:43;34.35;;;10.43;;
65879;SDS011;52661;51.364;6.054;2023-03-03T05:55:08;27.73;;;8.15;;
65879;SDS011;52661;51.364;6.054;2023-03-03T05:57:34;30.67;;;8.40;;
65879;SDS011;52661;51.364;6.054;2023-03-03T06:00:00;31.80;;;8.97;;
65879;SDS011;52661;51.364;6.054;2023-03-03T06:02:26;19.58;;;6.45;;
65879;SDS011;52661;51.364;6.054;2023-03-03T06:04:51;30.70;;;9.43;;
65879;SDS011;52661;51.364;6.054;2023-03-03T06:07:17;26.10;;;7.40;;
65879;SDS011;52661;51.364;6.054;2023-03-03T06:09:42;23.30;;;7.40;;
65879;SDS011;52661;51.364;6.054;2023-03-03T06:12:07;28.50;;;8.60;;
65879;SDS011;52661;51.364;6.054;2023-03-03T06:14:33;30.63;;;7.87;;
65879;SDS011;52661;51.364;6.054;2023-03-03T06:16:58;30.17;;;8.03;;
65879;SDS011;52661;51.364;6.054;2023-03-03T06:19:23;35.90;;;9.67;;
65879;SDS011;52661;51.364;6.054;2023-03-03T06:21:49;26.95;;;7.75;;
65879;SDS011;52661;51.364;6.054;2023-03-03T06:24:14;33.93;;;10.07;;
65879;SDS011;52661;51.364;6.054;2023-03-03T06:26:39;27.40;;;7.63;;
65879;SDS011;52661;51.364;6.054;2023-03-03T06:29:05;33.80;;;8.40;;
65879;SDS011;52661;51.364;6.054;2023-03-03T06:31:31;31.45;;;8.05;;
65879;SDS011;52661;51.364;6.054;2023-03-03T06:33:56;38.25;;;10.10;;
65879;SDS011;52661;51.364;6.054;2023-03-03T06:36:21;33.70;;;8.87;;
65879;SDS011;52661;51.364;6.054;2023-03-03T06:38:47;33.65;;;8.68;;
65879;SDS011;52661;51.364;6.054;2023-03-03T06:41:12;32.03;;;8.35;;
65879;SDS011;52661;51.364;6.054;2023-03-03T06:43:38;30.35;;;8.63;;
65879;SDS011;52661;51.364;6.054;2023-03-03T06:46:04;31.02;;;9.05;;
65879;SDS011;52661;51.364;6.054;2023-03-03T06:48:30;28.48;;;9.65;;
65879;SDS011;52661;51.364;6.054;2023-03-03T06:50:57;27.08;;;8.95;;
65879;SDS011;52661;51.364;6.054;2023-03-03T06:53:24;37.15;;;9.25;;
65879;SDS011;52661;51.364;6.054;2023-03-03T06:55:50;33.88;;;9.50;;
65879;SDS011;52661;51.364;6.054;2023-03-03T06:58:17;30.85;;;9.27;;
65879;SDS011;52661;51.364;6.054;2023-03-03T07:00:53;25.63;;;8.32;;
65879;SDS011;52661;51.364;6.054;2023-03-03T07:03:22;26.73;;;8.27;;
65879;SDS011;52661;51.364;6.054;2023-03-03T07:05:50;25.50;;;8.35;;
65879;SDS011;52661;51.364;6.054;2023-03-03T07:08:18;26.48;;;9.02;;
65879;SDS011;52661;51.364;6.054;2023-03-03T07:10:45;25.75;;;7.95;;
65879;SDS011;52661;51.364;6.054;2023-03-03T07:15:40;26.50;;;7.28;;
65879;SDS011;52661;51.364;6.054;2023-03-03T07:18:06;22.70;;;7.23;;
65879;SDS011;52661;51.364;6.054;2023-03-03T07:20:46;23.23;;;7.80;;
65879;SDS011;52661;51.364;6.054;2023-03-03T07:25:51;22.20;;;7.47;;
65879;SDS011;52661;51.364;6.054;2023-03-03T07:28:27;26.92;;;8.57;;
65879;SDS011;52661;51.364;6.054;2023-03-03T07:30:54;25.05;;;6.40;;
65879;SDS011;52661;51.364;6.054;2023-03-03T07:33:42;24.60;;;6.72;;
65879;SDS011;52661;51.364;6.054;2023-03-03T07:44:46;23.52;;;6.72;;
65879;SDS011;52661;51.364;6.054;2023-03-03T07:47:19;20.65;;;5.70;;
65879;SDS011;52661;51.364;6.054;2023-03-03T07:49:54;26.85;;;7.40;;
65879;SDS011;52661;51.364;6.054;2023-03-03T07:52:34;25.92;;;7.25;;
65879;SDS011;52661;51.364;6.054;2023-03-03T07:55:20;22.35;;;6.32;;
65879;SDS011;52661;51.364;6.054;2023-03-03T07:57:48;15.88;;;4.88;;
65879;SDS011;52661;51.364;6.054;2023-03-03T08:02:44;16.03;;;5.60;;
65879;SDS011;52661;51.364;6.054;2023-03-03T08:05:27;21.27;;;6.13;;
65879;SDS011;52661;51.364;6.054;2023-03-03T08:10:52;9.80;;;3.25;;
65879;SDS011;52661;51.364;6.054;2023-03-03T08:13:28;15.85;;;5.13;;
65879;SDS011;52661;51.364;6.054;2023-03-03T08:18:45;17.33;;;4.93;;
65879;SDS011;52661;51.364;6.054;2023-03-03T08:21:19;20.23;;;5.07;;
65879;SDS011;52661;51.364;6.054;2023-03-03T08:23:46;19.02;;;6.03;;
65879;SDS011;52661;51.364;6.054;2023-03-03T08:26:15;15.88;;;5.35;;
65879;SDS011;52661;51.364;6.054;2023-03-03T08:28:42;20.70;;;5.07;;
65879;SDS011;52661;51.364;6.054;2023-03-03T08:31:07;17.65;;;4.80;;
65879;SDS011;52661;51.364;6.054;2023-03-03T08:33:32;18.37;;;5.17;;
65879;SDS011;52661;51.364;6.054;2023-03-03T08:35:58;22.88;;;6.07;;
65879;SDS011;52661;51.364;6.054;2023-03-03T08:38:23;19.25;;;5.47;;
65879;SDS011;52661;51.364;6.054;2023-03-03T08:40:49;21.67;;;5.97;;
65879;SDS011;52661;51.364;6.054;2023-03-03T08:43:15;22.80;;;5.75;;
65879;SDS011;52661;51.364;6.054;2023-03-03T08:45:46;21.25;;;6.00;;
65879;SDS011;52661;51.364;6.054;2023-03-03T08:48:13;18.00;;;6.13;;
65879;SDS011;52661;51.364;6.054;2023-03-03T08:50:38;20.70;;;5.95;;
65879;SDS011;52661;51.364;6.054;2023-03-03T08:53:05;21.60;;;6.22;;
65879;SDS011;52661;51.364;6.054;2023-03-03T08:55:31;21.45;;;6.38;;
65879;SDS011;52661;51.364;6.054;2023-03-03T08:57:57;19.40;;;6.18;;
65879;SDS011;52661;51.364;6.054;2023-03-03T09:00:23;22.03;;;6.17;;
65879;SDS011;52661;51.364;6.054;2023-03-03T09:02:49;21.30;;;5.45;;
65879;SDS011;52661;51.364;6.054;2023-03-03T09:05:15;18.73;;;5.40;;
65879;SDS011;52661;51.364;6.054;2023-03-03T09:07:41;20.60;;;4.32;;
65879;SDS011;52661;51.364;6.054;2023-03-03T09:10:08;21.60;;;6.18;;
65879;SDS011;52661;51.364;6.054;2023-03-03T09:12:37;22.42;;;6.22;;
65879;SDS011;52661;51.364;6.054;2023-03-03T09:15:21;21.45;;;6.05;;
65879;SDS011;52661;51.364;6.054;2023-03-03T09:17:58;18.83;;;5.22;;
65879;SDS011;52661;51.364;6.054;2023-03-03T09:20:34;19.63;;;5.60;;
65879;SDS011;52661;51.364;6.054;2023-03-03T09:25:54;21.48;;;6.10;;
65879;SDS011;52661;51.364;6.054;2023-03-03T09:30:50;20.20;;;5.65;;
65879;SDS011;52661;51.364;6.054;2023-03-03T09:36:18;19.48;;;5.13;;
65879;SDS011;52661;51.364;6.054;2023-03-03T09:38:48;21.98;;;6.53;;
65879;SDS011;52661;51.364;6.054;2023-03-03T09:44:03;23.20;;;6.20;;
65879;SDS011;52661;51.364;6.054;2023-03-03T09:55:53;17.42;;;5.43;;
65879;SDS011;52661;51.364;6.054;2023-03-03T09:58:38;19.23;;;5.68;;
65879;SDS011;52661;51.364;6.054;2023-03-03T10:01:28;19.40;;;5.35;;
65879;SDS011;52661;51.364;6.054;2023-03-03T10:07:17;18.58;;;5.38;;
65879;SDS011;52661;51.364;6.054;2023-03-03T10:15:17;20.40;;;5.45;;
65879;SDS011;52661;51.364;6.054;2023-03-03T10:17:52;20.08;;;6.00;;
65879;SDS011;52661;51.364;6.054;2023-03-03T10:20:28;21.00;;;7.15;;
65879;SDS011;52661;51.364;6.054;2023-03-03T10:33:50;17.27;;;4.53;;
65879;SDS011;52661;51.364;6.054;2023-03-03T10:36:53;17.63;;;5.80;;
65879;SDS011;52661;51.364;6.054;2023-03-03T10:49:59;16.30;;;5.47;;
65879;SDS011;52661;51.364;6.054;2023-03-03T10:52:44;15.75;;;5.03;;
65879;SDS011;52661;51.364;6.054;2023-03-03T11:00:55;18.00;;;4.13;;
65879;SDS011;52661;51.364;6.054;2023-03-03T11:03:47;25.80;;;5.80;;
65879;SDS011;52661;51.364;6.054;2023-03-03T11:17:35;14.60;;;5.40;;
65879;SDS011;52661;51.364;6.054;2023-03-03T11:23:05;18.92;;;5.15;;
65879;SDS011;52661;51.364;6.054;2023-03-03T11:25:45;18.73;;;4.75;;
65879;SDS011;52661;51.364;6.054;2023-03-03T11:36:33;15.35;;;5.03;;
65879;SDS011;52661;51.364;6.054;2023-03-03T11:39:08;19.15;;;6.22;;
65879;SDS011;52661;51.364;6.054;2023-03-03T11:41:55;18.17;;;5.43;;
65879;SDS011;52661;51.364;6.054;2023-03-03T11:46:57;12.20;;;3.70;;
65879;SDS011;52661;51.364;6.054;2023-03-03T12:05:47;11.40;;;3.63;;
65879;SDS011;52661;51.364;6.054;2023-03-03T12:08:24;17.08;;;5.25;;
65879;SDS011;52661;51.364;6.054;2023-03-03T12:21:58;16.58;;;5.72;;
65879;SDS011;52661;51.364;6.054;2023-03-03T12:24:45;18.05;;;5.25;;
65879;SDS011;52661;51.364;6.054;2023-03-03T12:28:06;19.52;;;5.35;;
65879;SDS011;52661;51.364;6.054;2023-03-03T12:46:21;21.20;;;5.93;;
65879;SDS011;52661;51.364;6.054;2023-03-03T12:48:59;16.33;;;4.82;;
65879;SDS011;52661;51.364;6.054;2023-03-03T12:54:43;19.60;;;6.07;;
65879;SDS011;52661;51.364;6.054;2023-03-03T12:57:34;18.17;;;5.53;;
65879;SDS011;52661;51.364;6.054;2023-03-03T13:10:55;14.93;;;4.65;;
65879;SDS011;52661;51.364;6.054;2023-03-03T13:13:31;20.70;;;6.80;;
65879;SDS011;52661;51.364;6.054;2023-03-03T13:16:03;18.48;;;5.32;;
65879;SDS011;52661;51.364;6.054;2023-03-03T13:24:23;14.73;;;5.80;;
65879;SDS011;52661;51.364;6.054;2023-03-03T13:27:00;18.63;;;6.28;;
65879;SDS011;52661;51.364;6.054;2023-03-03T13:31:59;15.67;;;4.93;;
65879;SDS011;52661;51.364;6.054;2023-03-03T13:37:31;9.93;;;2.83;;
65879;SDS011;52661;51.364;6.054;2023-03-03T13:40:05;8.15;;;2.33;;
65879;SDS011;52661;51.364;6.054;2023-03-03T13:42:39;14.35;;;5.38;;
65879;SDS011;52661;51.364;6.054;2023-03-03T13:45:28;13.82;;;3.72;;
65879;SDS011;52661;51.364;6.054;2023-03-03T14:01:56;15.73;;;5.05;;
65879;SDS011;52661;51.364;6.054;2023-03-03T14:04:30;18.23;;;6.15;;
65879;SDS011;52661;51.364;6.054;2023-03-03T14:06:59;19.13;;;5.82;;
65879;SDS011;52661;51.364;6.054;2023-03-03T14:09:34;18.33;;;5.38;;
65879;SDS011;52661;51.364;6.054;2023-03-03T14:15:05;17.70;;;5.53;;
65879;SDS011;52661;51.364;6.054;2023-03-03T14:20:29;13.95;;;4.95;;
65879;SDS011;52661;51.364;6.054;2023-03-03T14:23:00;13.38;;;4.80;;
65879;SDS011;52661;51.364;6.054;2023-03-03T14:25:48;16.65;;;5.38;;
65879;SDS011;52661;51.364;6.054;2023-03-03T14:28:19;14.85;;;5.38;;
65879;SDS011;52661;51.364;6.054;2023-03-03T14:30:47;12.50;;;4.38;;
65879;SDS011;52661;51.364;6.054;2023-03-03T14:35:39;17.13;;;5.63;;
65879;SDS011;52661;51.364;6.054;2023-03-03T14:38:19;14.95;;;5.70;;
65879;SDS011;52661;51.364;6.054;2023-03-03T14:40:48;17.30;;;6.00;;
65879;SDS011;52661;51.364;6.054;2023-03-03T14:48:56;15.60;;;5.07;;
65879;SDS011;52661;51.364;6.054;2023-03-03T14:51:43;19.02;;;5.72;;
65879;SDS011;52661;51.364;6.054;2023-03-03T15:07:56;13.30;;;5.13;;
65879;SDS011;52661;51.364;6.054;2023-03-03T15:13:11;14.63;;;4.95;;
65879;SDS011;52661;51.364;6.054;2023-03-03T15:18:25;17.30;;;5.70;;
65879;SDS011;52661;51.364;6.054;2023-03-03T15:29:25;19.20;;;6.47;;
65879;SDS011;52661;51.364;6.054;2023-03-03T15:37:55;14.50;;;4.90;;
65879;SDS011;52661;51.364;6.054;2023-03-03T15:45:28;15.60;;;4.70;;
65879;SDS011;52661;51.364;6.054;2023-03-03T15:48:16;15.10;;;4.72;;
65879;SDS011;52661;51.364;6.054;2023-03-03T16:04:33;11.45;;;3.78;;
65879;SDS011;52661;51.364;6.054;2023-03-03T16:12:08;11.02;;;3.80;;
65879;SDS011;52661;51.364;6.054;2023-03-03T16:14:53;12.40;;;3.65;;
65879;SDS011;52661;51.364;6.054;2023-03-03T16:17:32;11.57;;;3.72;;
65879;SDS011;52661;51.364;6.054;2023-03-03T16:25:39;10.85;;;3.80;;
65879;SDS011;52661;51.364;6.054;2023-03-03T16:33:28;10.10;;;3.45;;
65879;SDS011;52661;51.364;6.054;2023-03-03T16:38:53;12.50;;;4.07;;
65879;SDS011;52661;51.364;6.054;2023-03-03T16:44:22;12.48;;;5.28;;
65879;SDS011;52661;51.364;6.054;2023-03-03T16:50:08;11.25;;;3.63;;
65879;SDS011;52661;51.364;6.054;2023-03-03T16:52:39;12.38;;;4.20;;
65879;SDS011;52661;51.364;6.054;2023-03-03T16:55:20;12.30;;;3.97;;
65879;SDS011;52661;51.364;6.054;2023-03-03T17:06:02;14.00;;;4.20;;
65879;SDS011;52661;51.364;6.054;2023-03-03T17:08:54;15.75;;;4.60;;
65879;SDS011;52661;51.364;6.054;2023-03-03T17:12:11;16.45;;;4.53;;
65879;SDS011;52661;51.364;6.054;2023-03-03T17:14:33;13.07;;;4.13;;
65879;SDS011;52661;51.364;6.054;2023-03-03T17:17:16;10.55;;;4.10;;
65879;SDS011;52661;51.364;6.054;2023-03-03T17:20:31;14.18;;;4.30;;
65879;SDS011;52661;51.364;6.054;2023-03-03T17:28:49;12.07;;;4.07;;
65879;SDS011;52661;51.364;6.054;2023-03-03T17:31:32;13.50;;;3.92;;
65879;SDS011;52661;51.364;6.054;2023-03-03T17:42:06;12.20;;;4.37;;
65879;SDS011;52661;51.364;6.054;2023-03-03T17:55:54;15.63;;;5.65;;
65879;SDS011;52661;51.364;6.054;2023-03-03T18:22:46;15.02;;;6.05;;
65879;SDS011;52661;51.364;6.054;2023-03-03T18:25:16;15.57;;;5.82;;
65879;SDS011;52661;51.364;6.054;2023-03-03T18:27:44;14.85;;;6.07;;
65879;SDS011;52661;51.364;6.054;2023-03-03T18:30:24;13.70;;;6.30;;
65879;SDS011;52661;51.364;6.054;2023-03-03T18:35:23;18.63;;;8.18;;
65879;SDS011;52661;51.364;6.054;2023-03-03T18:38:20;21.23;;;7.93;;
65879;SDS011;52661;51.364;6.054;2023-03-03T18:46:04;14.60;;;5.90;;
65879;SDS011;52661;51.364;6.054;2023-03-03T18:53:59;19.08;;;6.97;;
65879;SDS011;52661;51.364;6.054;2023-03-03T19:01:54;16.65;;;8.07;;
65879;SDS011;52661;51.364;6.054;2023-03-03T19:04:37;19.08;;;8.13;;
65879;SDS011;52661;51.364;6.054;2023-03-03T19:07:13;20.20;;;10.00;;
65879;SDS011;52661;51.364;6.054;2023-03-03T19:09:54;19.58;;;7.95;;
65879;SDS011;52661;51.364;6.054;2023-03-03T19:12:42;17.77;;;7.55;;
65879;SDS011;52661;51.364;6.054;2023-03-03T19:20:47;14.35;;;5.45;;
65879;SDS011;52661;51.364;6.054;2023-03-03T19:23:21;26.02;;;10.32;;
65879;SDS011;52661;51.364;6.054;2023-03-03T19:40:33;12.95;;;5.18;;
65879;SDS011;52661;51.364;6.054;2023-03-03T19:43:16;16.75;;;5.03;;
65879;SDS011;52661;51.364;6.054;2023-03-03T19:46:00;8.48;;;2.95;;
65879;SDS011;52661;51.364;6.054;2023-03-03T20:02:32;5.30;;;1.90;;
65879;SDS011;52661;51.364;6.054;2023-03-03T20:10:49;4.20;;;1.52;;
65879;SDS011;52661;51.364;6.054;2023-03-03T20:22:08;3.15;;;1.23;;
65879;SDS011;52661;51.364;6.054;2023-03-03T20:27:21;2.60;;;1.25;;
65879;SDS011;52661;51.364;6.054;2023-03-03T20:36:33;4.55;;;1.17;;
65879;SDS011;52661;51.364;6.054;2023-03-03T20:49:43;2.70;;;1.45;;
65879;SDS011;52661;51.364;6.054;2023-03-03T20:52:33;2.83;;;0.73;;
65879;SDS011;52661;51.364;6.054;2023-03-03T20:55:14;3.95;;;1.02;;
65879;SDS011;52661;51.364;6.054;2023-03-03T20:58:11;3.28;;;0.93;;
65879;SDS011;52661;51.364;6.054;2023-03-03T21:08:44;4.38;;;1.25;;
65879;SDS011;52661;51.364;6.054;2023-03-03T21:11:19;3.08;;;1.17;;
65879;SDS011;52661;51.364;6.054;2023-03-03T21:13:52;2.65;;;1.13;;
65879;SDS011;52661;51.364;6.054;2023-03-03T21:21:26;6.40;;;1.58;;
65879;SDS011;52661;51.364;6.054;2023-03-03T21:23:53;3.90;;;1.17;;
65879;SDS011;52661;51.364;6.054;2023-03-03T21:34:28;5.95;;;1.23;;
65879;SDS011;52661;51.364;6.054;2023-03-03T21:37:06;4.57;;;1.55;;
65879;SDS011;52661;51.364;6.054;2023-03-03T21:39:37;3.47;;;1.27;;
65879;SDS011;52661;51.364;6.054;2023-03-03T21:42:11;3.45;;;1.50;;
65879;SDS011;52661;51.364;6.054;2023-03-03T21:47:09;3.65;;;0.98;;
65879;SDS011;52661;51.364;6.054;2023-03-03T21:49:46;2.58;;;1.13;;
65879;SDS011;52661;51.364;6.054;2023-03-03T21:52:13;3.15;;;1.20;;
65879;SDS011;52661;51.364;6.054;2023-03-03T21:54:40;6.85;;;1.30;;
65879;SDS011;52661;51.364;6.054;2023-03-03T21:57:06;6.00;;;0.93;;
65879;SDS011;52661;51.364;6.054;2023-03-03T21:59:32;4.68;;;0.88;;
65879;SDS011;52661;51.364;6.054;2023-03-03T22:01:57;9.85;;;1.23;;
65879;SDS011;52661;51.364;6.054;2023-03-03T22:04:22;3.73;;;1.10;;
65879;SDS011;52661;51.364;6.054;2023-03-03T22:06:48;4.43;;;1.17;;
65879;SDS011;52661;51.364;6.054;2023-03-03T22:09:14;8.80;;;1.25;;
65879;SDS011;52661;51.364;6.054;2023-03-03T22:11:40;7.40;;;1.00;;
65879;SDS011;52661;51.364;6.054;2023-03-03T22:14:06;6.80;;;1.15;;
65879;SDS011;52661;51.364;6.054;2023-03-03T22:16:31;6.38;;;0.95;;
65879;SDS011;52661;51.364;6.054;2023-03-03T22:18:57;10.50;;;1.48;;
65879;SDS011;52661;51.364;6.054;2023-03-03T22:21:23;3.83;;;0.90;;
65879;SDS011;52661;51.364;6.054;2023-03-03T22:23:48;3.53;;;0.90;;
65879;SDS011;52661;51.364;6.054;2023-03-03T22:26:14;7.35;;;0.75;;
65879;SDS011;52661;51.364;6.054;2023-03-03T22:28:39;4.60;;;0.77;;
65879;SDS011;52661;51.364;6.054;2023-03-03T22:31:05;4.13;;;1.00;;
65879;SDS011;52661;51.364;6.054;2023-03-03T22:33:31;4.20;;;1.10;;
65879;SDS011;52661;51.364;6.054;2023-03-03T22:35:56;10.05;;;1.55;;
65879;SDS011;52661;51.364;6.054;2023-03-03T22:38:21;9.40;;;0.95;;
65879;SDS011;52661;51.364;6.054;2023-03-03T22:40:49;7.40;;;1.15;;
65879;SDS011;52661;51.364;6.054;2023-03-03T22:43:15;7.85;;;1.70;;